createdAt,value
2023-05-11T00:00:26.096Z,8.90
2023-05-11T00:02:54.424Z,8.70
2023-05-11T00:05:22.690Z,8.90
2023-05-11T00:07:50.924Z,8.90
2023-05-11T00:10:19.305Z,8.80
2023-05-11T00:12:47.653Z,8.50
2023-05-11T00:15:17.276Z,8.60
2023-05-11T00:17:45.728Z,8.70
2023-05-11T00:20:13.964Z,8.70
2023-05-11T00:22:44.101Z,8.60
2023-05-11T00:25:13.177Z,8.60
2023-05-11T00:27:45.899Z,8.60
2023-05-11T00:30:15.918Z,8.40
2023-05-11T00:32:45.979Z,8.50
2023-05-11T00:35:14.284Z,8.40
2023-05-11T00:37:42.835Z,8.40
2023-05-11T00:40:13.034Z,8.50
2023-05-11T00:42:41.358Z,8.40
2023-05-11T00:45:09.954Z,8.50
2023-05-11T00:47:38.497Z,8.50
2023-05-11T00:50:09.665Z,8.30
2023-05-11T00:52:37.949Z,8.30
2023-05-11T00:55:08.176Z,8.30
2023-05-11T00:57:36.543Z,8.20
2023-05-11T01:00:04.948Z,8.20
2023-05-11T01:02:35.151Z,8.20
2023-05-11T01:05:03.494Z,8.10
2023-05-11T01:07:34.445Z,8.00
2023-05-11T01:10:05.713Z,8.10
2023-05-11T01:12:37.339Z,8.10
2023-05-11T01:15:10.267Z,8.00
2023-05-11T01:17:41.844Z,8.00
2023-05-11T01:20:12.980Z,8.10
2023-05-11T01:22:52.401Z,8.00
2023-05-11T01:25:28.132Z,7.90
2023-05-11T01:28:11.460Z,8.00
2023-05-11T01:30:44.988Z,8.10
2023-05-11T01:33:14.498Z,7.90
2023-05-11T01:35:44.361Z,7.80
2023-05-11T01:38:14.344Z,7.80
2023-05-11T01:40:43.048Z,7.80
2023-05-11T01:43:13.987Z,7.90
2023-05-11T01:45:48.557Z,7.80
2023-05-11T01:48:20.472Z,7.80
2023-05-11T01:50:49.390Z,7.80
2023-05-11T01:53:20.134Z,7.70
2023-05-11T01:55:49.212Z,7.70
2023-05-11T01:58:18.802Z,7.60
2023-05-11T02:00:51.161Z,7.70
2023-05-11T02:03:20.374Z,7.70
2023-05-11T02:05:49.553Z,7.70
2023-05-11T02:08:18.288Z,7.60
2023-05-11T02:10:47.721Z,7.70
2023-05-11T02:13:17.162Z,7.70
2023-05-11T02:15:46.515Z,7.70
2023-05-11T02:18:16.896Z,7.80
2023-05-11T02:20:46.089Z,7.60
2023-05-11T02:23:14.641Z,7.60
2023-05-11T02:25:43.159Z,7.60
2023-05-11T02:28:11.703Z,7.50
2023-05-11T02:30:42.415Z,7.40
2023-05-11T02:33:11.191Z,7.50
2023-05-11T02:35:43.721Z,7.60
2023-05-11T02:38:13.679Z,7.60
2023-05-11T02:40:43.843Z,7.50
2023-05-11T02:43:13.820Z,7.40
2023-05-11T02:45:44.725Z,7.30
2023-05-11T02:48:18.393Z,7.30
2023-05-11T02:50:48.927Z,7.40
2023-05-11T02:53:17.645Z,7.50
2023-05-11T02:55:46.165Z,7.40
2023-05-11T02:58:14.302Z,7.50
2023-05-11T03:00:42.693Z,7.50
2023-05-11T03:03:11.043Z,7.40
2023-05-11T03:05:39.268Z,7.40
2023-05-11T03:08:11.912Z,7.50
2023-05-11T03:10:40.426Z,7.30
2023-05-11T03:13:11.059Z,7.30
2023-05-11T03:15:39.299Z,7.40
2023-05-11T03:18:08.475Z,7.50
2023-05-11T03:20:37.921Z,7.60
2023-05-11T03:23:06.707Z,7.60
2023-05-11T03:25:36.650Z,7.70
2023-05-11T03:28:05.710Z,7.70
2023-05-11T03:30:34.187Z,7.80
2023-05-11T03:33:02.548Z,8.00
2023-05-11T03:35:32.454Z,8.10
2023-05-11T03:38:00.925Z,8.20
2023-05-11T03:40:31.587Z,8.20
2023-05-11T03:43:02.708Z,8.40
2023-05-11T03:45:32.157Z,8.40
2023-05-11T03:48:00.756Z,8.50
2023-05-11T03:50:29.137Z,8.70
2023-05-11T03:52:57.629Z,8.80
2023-05-11T03:55:26.950Z,8.80
2023-05-11T03:57:55.251Z,8.90
2023-05-11T04:00:24.872Z,9.00
2023-05-11T04:02:53.543Z,9.20
2023-05-11T04:05:21.868Z,9.30
2023-05-11T04:07:51.774Z,9.60
2023-05-11T04:10:20.201Z,9.70
2023-05-11T04:12:48.513Z,9.90
2023-05-11T04:15:17.937Z,10.10
2023-05-11T04:17:47.729Z,10.60
2023-05-11T04:20:16.064Z,10.80
2023-05-11T04:22:44.362Z,10.90
2023-05-11T04:25:16.399Z,10.80
2023-05-11T04:27:44.649Z,10.70
2023-05-11T04:30:13.100Z,11.10
2023-05-11T04:32:41.467Z,11.00
2023-05-11T04:35:15.920Z,11.20
2023-05-11T04:37:44.035Z,11.60
2023-05-11T04:40:12.730Z,11.90
2023-05-11T04:42:43.437Z,11.60
2023-05-11T04:45:12.112Z,11.90
2023-05-11T04:47:40.297Z,11.80
2023-05-11T04:50:08.732Z,11.80
2023-05-11T04:52:38.332Z,12.00
2023-05-11T04:55:07.013Z,12.10
2023-05-11T04:57:35.134Z,12.30
2023-05-11T05:00:04.409Z,12.20
2023-05-11T05:02:32.620Z,12.30
2023-05-11T05:05:00.933Z,12.70
2023-05-11T05:07:29.101Z,12.60
2023-05-11T05:09:58.663Z,12.70
2023-05-11T05:12:27.059Z,12.90
2023-05-11T05:14:55.171Z,12.90
2023-05-11T05:17:23.794Z,13.30
2023-05-11T05:19:52.134Z,13.10
2023-05-11T05:22:20.224Z,13.30
2023-05-11T05:24:48.502Z,13.50
2023-05-11T05:27:18.120Z,13.50
2023-05-11T05:29:46.302Z,13.50
2023-05-11T05:32:14.636Z,13.70
2023-05-11T05:34:43.479Z,13.70
2023-05-11T05:37:11.795Z,13.50
2023-05-11T05:39:39.928Z,13.80
2023-05-11T05:42:08.612Z,13.70
2023-05-11T05:44:38.147Z,13.80
2023-05-11T05:47:06.502Z,13.90
2023-05-11T05:49:34.634Z,14.10
2023-05-11T05:52:02.957Z,14.70
2023-05-11T05:54:31.558Z,14.30
2023-05-11T05:56:59.779Z,14.50
2023-05-11T05:59:28.083Z,14.60
2023-05-11T06:01:57.648Z,14.70
2023-05-11T06:04:26.236Z,14.50
2023-05-11T06:06:55.948Z,14.60
2023-05-11T06:09:24.217Z,15.10
2023-05-11T06:11:54.403Z,15.30
2023-05-11T06:14:25.814Z,15.40
2023-05-11T06:16:53.944Z,15.50
2023-05-11T06:19:23.601Z,15.90
2023-05-11T06:21:51.789Z,15.70
2023-05-11T06:24:20.048Z,16.00
2023-05-11T06:26:48.358Z,16.00
2023-05-11T06:29:16.569Z,16.10
2023-05-11T06:31:44.988Z,16.20
2023-05-11T06:34:13.164Z,16.40
2023-05-11T06:36:42.869Z,16.60
2023-05-11T06:39:11.011Z,16.60
2023-05-11T06:41:39.308Z,16.60
2023-05-11T06:44:07.505Z,16.80
2023-05-11T06:46:35.970Z,16.70
2023-05-11T06:49:04.132Z,16.70
2023-05-11T06:51:32.458Z,17.00
2023-05-11T06:54:02.447Z,17.20
2023-05-11T06:56:32.039Z,17.50
2023-05-11T06:59:00.681Z,17.40
2023-05-11T07:01:28.975Z,17.40
2023-05-11T07:03:57.342Z,17.30
2023-05-11T07:06:25.579Z,17.40
2023-05-11T07:08:53.744Z,17.40
2023-05-11T07:11:23.665Z,16.80
2023-05-11T07:13:51.854Z,16.70
2023-05-11T07:16:20.255Z,16.70
2023-05-11T07:18:48.497Z,16.70
2023-05-11T07:21:16.839Z,17.00
2023-05-11T07:23:45.438Z,16.90
2023-05-11T07:26:14.007Z,17.30
2023-05-11T07:28:43.631Z,17.50
2023-05-11T07:31:11.867Z,17.50
2023-05-11T07:33:41.008Z,17.20
2023-05-11T07:36:09.295Z,17.30
2023-05-11T07:38:37.994Z,17.30
2023-05-11T07:41:07.443Z,17.70
2023-05-11T07:43:36.651Z,17.90
2023-05-11T07:46:06.509Z,17.90
2023-05-11T07:48:34.822Z,17.80
2023-05-11T07:51:03.310Z,17.70
2023-05-11T07:53:31.573Z,17.90
2023-05-11T07:56:00.833Z,17.80
2023-05-11T07:58:29.077Z,17.50
2023-05-11T08:00:57.793Z,17.00
2023-05-11T08:03:27.436Z,16.70
2023-05-11T08:05:55.893Z,16.10
2023-05-11T08:08:24.492Z,16.50
2023-05-11T08:10:52.741Z,16.90
2023-05-11T08:13:20.989Z,17.10
2023-05-11T08:15:49.359Z,17.00
2023-05-11T08:18:18.309Z,16.80
2023-05-11T08:20:49.285Z,17.30
2023-05-11T08:23:18.594Z,16.80
2023-05-11T08:25:53.349Z,16.50
2023-05-11T08:28:22.028Z,16.40
2023-05-11T08:30:54.861Z,16.40
2023-05-11T08:33:36.645Z,16.60
2023-05-11T08:36:09.060Z,17.00
2023-05-11T08:38:37.504Z,16.80
2023-05-11T08:41:07.856Z,16.60
2023-05-11T08:43:36.580Z,16.70
2023-05-11T08:46:07.482Z,16.60
2023-05-11T08:48:36.147Z,17.20
2023-05-11T08:51:04.754Z,16.80
2023-05-11T08:53:34.593Z,16.70
2023-05-11T08:56:02.951Z,16.60
2023-05-11T08:58:32.155Z,16.60
2023-05-11T09:01:00.828Z,16.90
2023-05-11T09:03:31.043Z,17.30
2023-05-11T09:05:59.932Z,17.50
2023-05-11T09:08:30.053Z,17.70
2023-05-11T09:11:00.000Z,17.20
2023-05-11T09:13:28.350Z,17.10
2023-05-11T09:15:56.506Z,17.20
2023-05-11T09:18:24.792Z,16.80
2023-05-11T09:20:52.978Z,17.00
2023-05-11T09:23:25.695Z,17.00
2023-05-11T09:25:54.058Z,17.10
2023-05-11T09:28:25.740Z,16.90
2023-05-11T09:30:56.882Z,17.00
2023-05-11T09:33:26.262Z,17.30
2023-05-11T09:35:54.976Z,17.00
2023-05-11T09:38:26.461Z,17.20
2023-05-11T09:40:55.297Z,17.40
2023-05-11T09:43:26.029Z,17.70
2023-05-11T09:45:54.671Z,17.90
2023-05-11T09:48:27.306Z,17.60
2023-05-11T09:51:00.709Z,17.50
2023-05-11T09:53:38.928Z,17.70
2023-05-11T09:56:07.350Z,17.50
2023-05-11T09:58:50.886Z,17.40
2023-05-11T10:01:19.777Z,17.60
2023-05-11T10:03:56.277Z,17.60
2023-05-11T10:06:28.721Z,17.30
2023-05-11T10:08:56.949Z,17.40
2023-05-11T10:11:26.359Z,17.20
2023-05-11T10:13:56.138Z,17.70
2023-05-11T10:16:24.318Z,17.80
2023-05-11T10:18:52.957Z,17.90
2023-05-11T10:21:21.283Z,17.70
2023-05-11T10:23:49.574Z,17.60
2023-05-11T10:26:17.875Z,17.40
2023-05-11T10:28:46.067Z,17.80
2023-05-11T10:31:18.453Z,18.00
2023-05-11T10:33:48.599Z,17.90
2023-05-11T10:36:19.395Z,18.20
2023-05-11T10:38:47.856Z,17.90
2023-05-11T10:41:26.918Z,17.60
2023-05-11T10:44:04.979Z,17.40
2023-05-11T10:46:44.680Z,17.30
2023-05-11T10:49:19.747Z,17.60
2023-05-11T10:51:54.516Z,18.00
2023-05-11T10:54:28.809Z,18.20
2023-05-11T10:57:07.663Z,17.70
2023-05-11T11:00:04.874Z,17.30
2023-05-11T11:02:34.807Z,17.60
2023-05-11T11:05:05.895Z,17.70
2023-05-11T11:07:47.112Z,17.10
2023-05-11T11:10:30.737Z,17.30
2023-05-11T11:13:06.752Z,17.20
2023-05-11T11:15:53.619Z,17.20
2023-05-11T11:18:24.021Z,17.00
2023-05-11T11:20:53.030Z,17.50
2023-05-11T11:23:39.943Z,17.50
2023-05-11T11:26:08.700Z,17.70
2023-05-11T11:28:57.136Z,17.60
2023-05-11T11:31:26.126Z,17.60
2023-05-11T11:33:59.426Z,17.60
2023-05-11T11:36:51.432Z,17.40
2023-05-11T11:39:19.769Z,17.70
2023-05-11T11:41:47.937Z,18.20
2023-05-11T11:44:22.781Z,18.70
2023-05-11T11:47:11.233Z,18.70
2023-05-11T11:49:44.230Z,18.00
2023-05-11T11:52:12.995Z,18.00
2023-05-11T11:54:41.721Z,17.60
2023-05-11T11:57:28.223Z,18.00
2023-05-11T11:59:58.830Z,18.20
2023-05-11T12:02:27.637Z,18.60
2023-05-11T12:04:59.338Z,18.30
2023-05-11T12:07:28.191Z,17.80
2023-05-11T12:09:57.228Z,18.00
2023-05-11T12:12:25.457Z,17.80
2023-05-11T12:14:53.786Z,17.70
2023-05-11T12:17:25.477Z,17.40
2023-05-11T12:19:56.450Z,17.60
2023-05-11T12:22:26.713Z,18.10
2023-05-11T12:24:58.798Z,18.70
2023-05-11T12:27:31.271Z,19.00
2023-05-11T12:30:00.361Z,18.40
2023-05-11T12:32:29.280Z,17.70
2023-05-11T12:35:06.360Z,18.10
2023-05-11T12:37:36.359Z,18.50
2023-05-11T12:40:04.865Z,18.10
2023-05-11T12:42:35.204Z,18.60
2023-05-11T12:45:04.209Z,18.50
2023-05-11T12:47:32.706Z,18.20
2023-05-11T12:50:01.055Z,17.70
2023-05-11T12:52:29.158Z,17.60
2023-05-11T12:55:00.754Z,17.30
2023-05-11T12:57:29.803Z,17.50
2023-05-11T13:00:08.201Z,17.70
2023-05-11T13:02:36.498Z,18.10
2023-05-11T13:05:11.960Z,18.20
2023-05-11T13:07:40.372Z,18.60
2023-05-11T13:10:10.297Z,18.40
2023-05-11T13:12:48.604Z,18.80
2023-05-11T13:15:16.946Z,18.40
2023-05-11T13:17:45.445Z,18.50
2023-05-11T13:20:17.340Z,18.20
2023-05-11T13:22:45.950Z,18.80
2023-05-11T13:25:17.086Z,18.00
2023-05-11T13:27:45.808Z,18.30
2023-05-11T13:30:14.533Z,17.50
2023-05-11T13:32:42.921Z,17.40
2023-05-11T13:35:11.202Z,18.70
2023-05-11T13:37:39.471Z,18.50
2023-05-11T13:40:10.495Z,18.80
2023-05-11T13:42:40.261Z,18.70
2023-05-11T13:45:09.380Z,18.60
2023-05-11T13:47:37.858Z,18.90
2023-05-11T13:50:06.555Z,18.90
2023-05-11T13:52:34.724Z,18.60
2023-05-11T13:55:03.008Z,18.00
2023-05-11T13:57:34.456Z,18.20
2023-05-11T14:00:04.534Z,18.50
2023-05-11T14:02:32.927Z,19.00
2023-05-11T14:05:01.277Z,18.80
2023-05-11T14:07:42.954Z,19.00
2023-05-11T14:10:15.163Z,18.60
2023-05-11T14:12:49.180Z,19.70
2023-05-11T14:15:19.120Z,20.90
2023-05-11T14:17:47.511Z,21.10
2023-05-11T14:20:15.803Z,21.30
2023-05-11T14:22:43.915Z,21.90
2023-05-11T14:25:12.288Z,22.10
2023-05-11T14:27:40.511Z,22.00
2023-05-11T14:30:09.335Z,22.10
2023-05-11T14:32:38.994Z,22.10
2023-05-11T14:35:07.493Z,22.10
2023-05-11T14:37:36.307Z,22.40
2023-05-11T14:40:04.995Z,22.50
2023-05-11T14:42:36.082Z,22.40
2023-05-11T14:45:04.429Z,22.60
2023-05-11T14:47:35.496Z,22.50
2023-05-11T14:50:05.265Z,22.20
2023-05-11T14:52:33.684Z,22.20
2023-05-11T14:55:01.826Z,22.10
2023-05-11T14:57:30.122Z,22.00
2023-05-11T15:00:00.195Z,22.20
2023-05-11T15:02:29.916Z,22.40
2023-05-11T15:04:58.470Z,22.60
2023-05-11T15:07:28.062Z,22.50
2023-05-11T15:09:56.205Z,22.60
2023-05-11T15:12:24.950Z,22.40
2023-05-11T15:14:53.305Z,22.10
2023-05-11T15:17:21.447Z,22.10
2023-05-11T15:19:51.471Z,22.20
2023-05-11T15:22:20.138Z,21.90
2023-05-11T15:24:49.775Z,22.00
2023-05-11T15:27:18.148Z,21.70
2023-05-11T15:29:46.282Z,21.90
2023-05-11T15:32:15.566Z,21.90
2023-05-11T15:34:55.164Z,21.70
2023-05-11T15:37:27.048Z,21.90
2023-05-11T15:39:56.798Z,21.80
2023-05-11T15:42:24.952Z,21.90
2023-05-11T15:44:54.490Z,21.80
2023-05-11T15:47:22.936Z,22.00
2023-05-11T15:49:51.053Z,21.80
2023-05-11T15:52:19.181Z,22.30
2023-05-11T15:54:47.819Z,21.90
2023-05-11T15:57:17.543Z,21.60
2023-05-11T15:59:45.698Z,21.50
2023-05-11T16:02:15.821Z,21.70
2023-05-11T16:04:44.001Z,21.70
2023-05-11T16:07:12.232Z,21.50
2023-05-11T16:09:40.411Z,21.60
2023-05-11T16:12:08.983Z,21.60
2023-05-11T16:14:38.722Z,21.50
2023-05-11T16:17:07.269Z,21.40
2023-05-11T16:19:35.502Z,21.50
2023-05-11T16:22:03.720Z,21.50
2023-05-11T16:24:34.624Z,21.50
2023-05-11T16:27:03.279Z,21.50
2023-05-11T16:29:33.735Z,21.80
2023-05-11T16:32:03.513Z,22.00
2023-05-11T16:34:31.990Z,21.80
2023-05-11T16:37:00.121Z,21.70
2023-05-11T16:39:28.273Z,21.50
2023-05-11T16:41:56.625Z,21.20
2023-05-11T16:44:27.580Z,21.30
2023-05-11T16:46:56.180Z,21.30
2023-05-11T16:49:25.947Z,21.20
2023-05-11T16:51:54.113Z,21.40
2023-05-11T16:54:22.381Z,21.20
2023-05-11T16:56:50.547Z,21.10
2023-05-11T16:59:18.744Z,20.90
2023-05-11T17:01:47.139Z,20.80
2023-05-11T17:04:15.336Z,20.80
2023-05-11T17:06:45.016Z,20.70
2023-05-11T17:09:13.440Z,20.50
2023-05-11T17:11:41.693Z,20.10
2023-05-11T17:14:09.840Z,20.40
2023-05-11T17:16:38.065Z,20.30
2023-05-11T17:19:06.312Z,20.20
2023-05-11T17:21:34.639Z,20.60
2023-05-11T17:24:04.322Z,20.40
2023-05-11T17:26:39.605Z,20.30
2023-05-11T17:29:15.127Z,20.30
2023-05-11T17:31:43.533Z,20.10
2023-05-11T17:34:11.969Z,20.00
2023-05-11T17:36:40.425Z,19.70
2023-05-11T17:39:10.282Z,19.80
2023-05-11T17:41:38.699Z,19.80
2023-05-11T17:44:06.857Z,20.20
2023-05-11T17:46:35.388Z,19.80
2023-05-11T17:49:04.158Z,19.90
2023-05-11T17:51:33.275Z,19.90
2023-05-11T17:54:01.529Z,19.70
2023-05-11T17:56:31.513Z,19.70
2023-05-11T17:58:59.861Z,19.30
2023-05-11T18:01:28.742Z,19.20
2023-05-11T18:03:58.776Z,19.20
2023-05-11T18:06:28.420Z,19.30
2023-05-11T18:08:56.836Z,19.00
2023-05-11T18:11:25.067Z,18.80
2023-05-11T18:13:56.039Z,18.70
2023-05-11T18:16:24.513Z,18.50
2023-05-11T18:18:52.961Z,18.70
2023-05-11T18:21:21.428Z,18.50
2023-05-11T18:23:49.718Z,18.20
2023-05-11T18:26:19.405Z,18.10
2023-05-11T18:28:47.609Z,18.00
2023-05-11T18:31:19.076Z,17.80
2023-05-11T18:33:47.638Z,17.70
2023-05-11T18:36:16.205Z,17.80
2023-05-11T18:38:44.864Z,17.60
2023-05-11T18:41:13.201Z,17.60
2023-05-11T18:43:44.163Z,17.40
2023-05-11T18:46:12.575Z,17.50
2023-05-11T18:48:44.182Z,17.50
2023-05-11T18:51:12.335Z,17.30
2023-05-11T18:53:40.455Z,17.00
2023-05-11T18:56:11.091Z,16.80
2023-05-11T18:58:39.206Z,16.70
2023-05-11T19:01:07.728Z,16.70
2023-05-11T19:03:37.991Z,16.50
2023-05-11T19:06:09.163Z,16.70
2023-05-11T19:08:37.367Z,16.60
2023-05-11T19:11:06.944Z,16.50
2023-05-11T19:13:35.553Z,16.30
2023-05-11T19:16:04.811Z,16.20
2023-05-11T19:18:35.647Z,16.30
2023-05-11T19:21:07.065Z,16.20
2023-05-11T19:23:36.952Z,16.10
2023-05-11T19:26:05.368Z,16.00
2023-05-11T19:28:33.544Z,15.90
2023-05-11T19:31:04.884Z,15.80
2023-05-11T19:33:33.571Z,15.80
2023-05-11T19:36:03.960Z,15.40
2023-05-11T19:38:32.163Z,15.40
2023-05-11T19:41:02.178Z,15.40
2023-05-11T19:43:30.326Z,15.30
2023-05-11T19:45:58.958Z,15.20
2023-05-11T19:48:27.359Z,15.10
2023-05-11T19:50:55.490Z,15.20
2023-05-11T19:53:27.013Z,15.20
2023-05-11T19:55:55.348Z,15.20
2023-05-11T19:58:24.961Z,14.80
2023-05-11T20:00:53.339Z,14.70
2023-05-11T20:03:21.960Z,14.60
2023-05-11T20:05:50.466Z,14.50
2023-05-11T20:08:18.635Z,14.20
2023-05-11T20:10:46.853Z,14.40
2023-05-11T20:13:15.183Z,14.40
2023-05-11T20:15:44.898Z,14.00
2023-05-11T20:18:13.045Z,13.80
2023-05-11T20:20:42.911Z,13.80
2023-05-11T20:23:11.128Z,13.70
2023-05-11T20:25:43.869Z,13.70
2023-05-11T20:28:12.390Z,13.80
2023-05-11T20:30:40.686Z,13.80
2023-05-11T20:35:41.682Z,13.70
2023-05-11T20:38:10.033Z,13.60
2023-05-11T20:40:38.443Z,13.50
2023-05-11T20:43:08.354Z,13.50
2023-05-11T20:45:37.656Z,13.60
2023-05-11T20:48:05.920Z,13.40
2023-05-11T20:50:39.754Z,13.50
2023-05-11T20:53:08.052Z,13.40
2023-05-11T20:55:36.205Z,13.10
2023-05-11T20:58:05.360Z,13.00
2023-05-11T21:00:33.900Z,13.00
2023-05-11T21:03:02.268Z,12.80
2023-05-11T21:05:30.669Z,12.90
2023-05-11T21:08:00.325Z,12.90
2023-05-11T21:10:28.634Z,12.70
2023-05-11T21:12:56.754Z,12.90
2023-05-11T21:15:24.962Z,12.80
2023-05-11T21:17:53.295Z,12.80
2023-05-11T21:20:21.751Z,12.70
2023-05-11T21:22:50.642Z,12.70
2023-05-11T21:25:20.521Z,12.70
2023-05-11T21:27:48.665Z,12.40
2023-05-11T21:30:17.448Z,12.30
2023-05-11T21:32:45.914Z,12.40
2023-05-11T21:35:16.795Z,12.30
2023-05-11T21:37:49.698Z,12.30
2023-05-11T21:40:18.607Z,12.30
2023-05-11T21:42:50.883Z,12.00
2023-05-11T21:45:19.938Z,12.20
2023-05-11T21:47:48.140Z,12.20
2023-05-11T21:50:17.078Z,12.10
2023-05-11T21:52:45.735Z,11.90
2023-05-11T21:55:13.884Z,12.00
2023-05-11T21:57:42.407Z,12.00
2023-05-11T22:00:18.595Z,11.90
2023-05-11T22:02:47.307Z,11.80
2023-05-11T22:05:15.647Z,11.70
2023-05-11T22:07:44.112Z,11.70
2023-05-11T22:10:12.287Z,11.80
2023-05-11T22:12:40.635Z,11.70
2023-05-11T22:15:09.705Z,11.80
2023-05-11T22:17:41.466Z,11.90
2023-05-11T22:20:10.198Z,11.70
2023-05-11T22:22:38.737Z,11.20
2023-05-11T22:25:07.310Z,11.40
2023-05-11T22:27:36.577Z,11.50
2023-05-11T22:30:05.022Z,11.50
2023-05-11T22:32:33.325Z,11.40
2023-05-11T22:35:03.017Z,11.10
2023-05-11T22:37:32.340Z,11.10
2023-05-11T22:40:01.278Z,11.00
2023-05-11T22:42:32.985Z,11.00
2023-05-11T22:45:01.090Z,10.90
2023-05-11T22:47:29.535Z,11.00
2023-05-11T22:49:57.883Z,10.90
2023-05-11T22:52:27.616Z,10.80
2023-05-11T22:54:58.099Z,10.80
2023-05-11T22:57:27.012Z,10.90
2023-05-11T22:59:55.147Z,10.90
2023-05-11T23:02:23.610Z,10.80
2023-05-11T23:04:52.423Z,10.80
2023-05-11T23:07:20.933Z,10.70
2023-05-11T23:09:53.028Z,10.70
2023-05-11T23:12:21.396Z,10.80
2023-05-11T23:14:49.699Z,10.90
2023-05-11T23:17:17.874Z,10.60
2023-05-11T23:19:46.243Z,10.70
2023-05-11T23:22:14.393Z,10.80
2023-05-11T23:24:42.670Z,10.50
2023-05-11T23:27:12.414Z,10.60
2023-05-11T23:29:40.712Z,10.70
2023-05-11T23:32:08.863Z,10.50
2023-05-11T23:34:38.104Z,10.60
2023-05-11T23:37:06.442Z,10.50
2023-05-11T23:39:34.856Z,10.40
2023-05-11T23:42:04.339Z,10.50
2023-05-11T23:44:35.371Z,10.40
2023-05-11T23:47:03.539Z,10.30
2023-05-11T23:49:31.895Z,10.40
2023-05-11T23:52:00.063Z,10.40
2023-05-11T23:54:28.348Z,10.20
2023-05-11T23:56:56.541Z,10.30
2023-05-11T23:59:27.096Z,10.20
